Time,TemperatureF,DewpointF,PressureIn,WindDirection,WindDirectionDegrees,WindSpeedMPH,WindSpeedGustMPH,Humidity,HourlyPrecipIn,Conditions,Clouds,dailyrainin,SoftwareType,DateUTC
2013-11-18 00:02:00,60.9,59.0,29.91,WNW,285,0.0,1.0,93,0.01,,,0.00,weatherlink.com 1.10,2013-11-18 05:02:00,
2013-11-18 00:17:00,60.7,59.0,29.90,WNW,285,0.0,0.0,93,0.01,,,0.00,weatherlink.com 1.10,2013-11-18 05:17:00,
2013-11-18 00:32:00,60.7,59.0,29.88,WNW,285,0.0,0.0,93,0.01,,,0.00,weatherlink.com 1.10,2013-11-18 05:32:00,
2013-11-18 00:47:00,62.3,61.0,29.88,West,263,1.0,2.0,94,0.01,,,0.00,weatherlink.com 1.10,2013-11-18 05:47:00,
2013-11-18 01:02:00,63.1,61.0,29.89,WSW,238,1.0,4.0,94,0.00,,,0.00,weatherlink.com 1.10,2013-11-18 06:02:00,
2013-11-18 01:17:00,62.1,60.0,29.88,SW,234,1.0,3.0,93,0.00,,,0.00,weatherlink.com 1.10,2013-11-18 06:17:00,
2013-11-18 01:32:00,62.1,60.0,29.88,SW,236,3.0,4.0,94,0.00,,,0.00,weatherlink.com 1.10,2013-11-18 06:32:00,
2013-11-18 01:47:00,62.2,61.0,29.88,WSW,237,2.0,4.0,94,0.00,,,0.00,weatherlink.com 1.10,2013-11-18 06:47:00,
2013-11-18 02:02:00,62.2,61.0,29.87,SW,235,2.0,4.0,94,0.00,,,0.00,weatherlink.com 1.10,2013-11-18 07:02:00,
2013-11-18 02:17:00,62.2,61.0,29.86,SW,235,0.0,1.0,94,0.00,,,0.00,weatherlink.com 1.10,2013-11-18 07:17:00,
2013-11-18 02:33:00,62.8,61.0,29.86,SW,236,0.0,3.0,94,0.00,,,0.00,weatherlink.com 1.10,2013-11-18 07:33:00,
2013-11-18 02:47:00,63.0,61.0,29.85,WSW,246,0.0,3.0,94,0.00,,,0.00,weatherlink.com 1.10,2013-11-18 07:47:00,
2013-11-18 03:02:00,63.6,62.0,29.85,SW,218,0.0,4.0,94,0.00,,,0.00,weatherlink.com 1.10,2013-11-18 08:02:00,
2013-11-18 03:17:00,63.9,62.0,29.86,WSW,242,0.0,5.0,94,0.00,,,0.00,weatherlink.com 1.10,2013-11-18 08:17:00,
2013-11-18 03:32:00,63.9,62.0,29.86,WSW,237,3.0,4.0,94,0.00,,,0.00,weatherlink.com 1.10,2013-11-18 08:32:00,
2013-11-18 03:47:00,63.8,62.0,29.88,WSW,241,1.0,5.0,94,0.00,,,0.00,weatherlink.com 1.10,2013-11-18 08:47:00,
2013-11-18 04:02:00,63.6,62.0,29.88,WSW,244,0.0,4.0,93,0.00,,,0.00,weatherlink.com 1.10,2013-11-18 09:02:00,
2013-11-18 04:16:00,63.4,62.0,29.88,WSW,244,0.0,3.0,94,0.00,,,0.00,weatherlink.com 1.10,2013-11-18 09:16:00,
2013-11-18 04:33:00,63.2,61.0,29.89,West,278,0.0,2.0,93,0.00,,,0.00,weatherlink.com 1.10,2013-11-18 09:33:00,
2013-11-18 04:47:00,63.0,61.0,29.90,WSW,250,0.0,2.0,93,0.00,,,0.00,weatherlink.com 1.10,2013-11-18 09:47:00,
2013-11-18 05:02:00,62.9,61.0,29.90,WSW,250,0.0,0.0,93,0.00,,,0.00,weatherlink.com 1.10,2013-11-18 10:02:00,
2013-11-18 05:17:00,62.6,61.0,29.89,WSW,250,0.0,0.0,93,0.00,,,0.00,weatherlink.com 1.10,2013-11-18 10:17:00,
2013-11-18 05:32:00,62.2,60.0,29.89,WSW,250,0.0,0.0,93,0.00,,,0.00,weatherlink.com 1.10,2013-11-18 10:32:00,
2013-11-18 05:47:00,61.4,59.0,29.89,WSW,250,0.0,0.0,93,0.00,,,0.00,weatherlink.com 1.10,2013-11-18 10:47:00,
2013-11-18 06:02:00,60.8,59.0,29.88,WSW,250,0.0,0.0,93,0.00,,,0.00,weatherlink.com 1.10,2013-11-18 11:02:00,
2013-11-18 06:17:00,60.0,58.0,29.90,WSW,250,0.0,0.0,93,0.00,,,0.00,weatherlink.com 1.10,2013-11-18 11:17:00,
2013-11-18 06:32:00,59.3,57.0,29.89,WSW,250,0.0,0.0,93,0.00,,,0.00,weatherlink.com 1.10,2013-11-18 11:32:00,
2013-11-18 06:47:00,58.7,57.0,29.89,WSW,250,0.0,0.0,93,0.00,,,0.00,weatherlink.com 1.10,2013-11-18 11:47:00,
2013-11-18 07:02:00,58.8,57.0,29.90,WSW,250,0.0,0.0,93,0.00,,,0.00,weatherlink.com 1.10,2013-11-18 12:02:00,
2013-11-18 07:17:00,58.9,57.0,29.91,WSW,250,0.0,0.0,93,0.00,,,0.00,weatherlink.com 1.10,2013-11-18 12:17:00,
2013-11-18 07:32:00,58.7,57.0,29.92,WSW,250,0.0,0.0,93,0.00,,,0.00,weatherlink.com 1.10,2013-11-18 12:32:00,
2013-11-18 07:47:00,58.2,56.0,29.92,WSW,250,0.0,0.0,93,0.00,,,0.00,weatherlink.com 1.10,2013-11-18 12:47:00,
2013-11-18 08:03:00,57.9,56.0,29.92,WSW,250,0.0,0.0,93,0.00,,,0.00,weatherlink.com 1.10,2013-11-18 13:03:00,
2013-11-18 08:18:00,58.6,57.0,29.92,WSW,250,0.0,0.0,93,0.00,,,0.00,weatherlink.com 1.10,2013-11-18 13:18:00,
2013-11-18 08:33:00,59.9,58.0,29.93,WSW,250,0.0,0.0,94,0.00,,,0.00,weatherlink.com 1.10,2013-11-18 13:33:00,
2013-11-18 08:48:00,60.9,59.0,29.93,WSW,250,0.0,0.0,94,0.00,,,0.00,weatherlink.com 1.10,2013-11-18 13:48:00,
2013-11-18 09:03:00,61.2,60.0,29.93,WSW,250,0.0,0.0,94,0.00,,,0.00,weatherlink.com 1.10,2013-11-18 14:03:00,
2013-11-18 09:18:00,60.9,59.0,29.94,WSW,250,0.0,1.0,92,0.00,,,0.00,weatherlink.com 1.10,2013-11-18 14:18:00,
2013-11-18 09:33:00,61.1,58.0,29.93,WSW,250,0.0,0.0,88,0.00,,,0.00,weatherlink.com 1.10,2013-11-18 14:33:00,
2013-11-18 09:48:00,62.1,57.0,29.93,WSW,250,0.0,3.0,82,0.00,,,0.00,weatherlink.com 1.10,2013-11-18 14:48:00,
2013-11-18 10:03:00,62.9,55.0,29.93,WSW,250,0.0,1.0,75,0.00,,,0.00,weatherlink.com 1.10,2013-11-18 15:03:00,
2013-11-18 10:18:00,64.2,55.0,29.93,West,272,0.0,1.0,73,0.00,,,0.00,weatherlink.com 1.10,2013-11-18 15:18:00,
2013-11-18 10:33:00,65.4,55.0,29.93,WSW,251,1.0,3.0,70,0.00,,,0.00,weatherlink.com 1.10,2013-11-18 15:33:00,
2013-11-18 10:48:00,66.8,52.0,29.93,West,279,0.0,3.0,60,0.00,,,0.00,weatherlink.com 1.10,2013-11-18 15:48:00,
2013-11-18 11:03:00,68.2,51.0,29.92,West,271,0.0,8.0,55,0.00,,,0.00,weatherlink.com 1.10,2013-11-18 16:03:00,
2013-11-18 11:17:00,69.5,49.0,29.92,West,276,1.0,4.0,49,0.00,,,0.00,weatherlink.com 1.10,2013-11-18 16:17:00,
2013-11-18 11:33:00,70.6,47.0,29.91,SW,215,0.0,4.0,43,0.00,,,0.00,weatherlink.com 1.10,2013-11-18 16:33:00,
2013-11-18 11:48:00,70.9,48.0,29.91,SW,228,0.0,5.0,44,0.00,,,0.00,weatherlink.com 1.10,2013-11-18 16:48:00,
2013-11-18 12:03:00,71.6,48.0,29.90,WNW,300,0.0,4.0,43,0.00,,,0.00,weatherlink.com 1.10,2013-11-18 17:03:00,
2013-11-18 12:18:00,72.6,48.0,29.90,SW,226,3.0,8.0,42,0.00,,,0.00,weatherlink.com 1.10,2013-11-18 17:18:00,
2013-11-18 12:33:00,72.5,47.0,29.89,SW,234,1.0,7.0,41,0.00,,,0.00,weatherlink.com 1.10,2013-11-18 17:33:00,
2013-11-18 12:48:00,73.4,46.0,29.89,WNW,293,0.0,5.0,38,0.00,,,0.00,weatherlink.com 1.10,2013-11-18 17:48:00,
2013-11-18 13:03:00,74.5,48.0,29.89,WSW,241,0.0,5.0,39,0.00,,,0.00,weatherlink.com 1.10,2013-11-18 18:03:00,
2013-11-18 13:18:00,75.1,46.0,29.89,WSW,238,1.0,5.0,36,0.00,,,0.00,weatherlink.com 1.10,2013-11-18 18:18:00,
2013-11-18 13:33:00,74.6,46.0,29.89,NW,315,1.0,5.0,36,0.00,,,0.00,weatherlink.com 1.10,2013-11-18 18:33:00,
2013-11-18 13:48:00,74.7,46.0,29.89,WSW,240,3.0,7.0,36,0.00,,,0.00,weatherlink.com 1.10,2013-11-18 18:48:00,
2013-11-18 14:03:00,74.2,48.0,29.89,SSW,198,6.0,6.0,39,0.00,,,0.00,weatherlink.com 1.10,2013-11-18 19:03:00,
2013-11-18 14:18:00,74.3,46.0,29.89,WSW,253,1.0,7.0,36,0.00,,,0.00,weatherlink.com 1.10,2013-11-18 19:18:00,
2013-11-18 14:33:00,73.6,45.0,29.89,West,274,1.0,8.0,36,0.00,,,0.00,weatherlink.com 1.10,2013-11-18 19:33:00,
2013-11-18 14:48:00,73.6,42.0,29.89,SW,234,1.0,8.0,32,0.00,,,0.00,weatherlink.com 1.10,2013-11-18 19:48:00,
2013-11-18 15:03:00,73.5,41.0,29.89,West,281,0.0,4.0,31,0.00,,,0.00,weatherlink.com 1.10,2013-11-18 20:03:00,
2013-11-18 15:18:00,72.4,37.0,29.89,WSW,241,0.0,7.0,28,0.00,,,0.00,weatherlink.com 1.10,2013-11-18 20:18:00,
2013-11-18 15:33:00,71.0,33.0,29.89,SW,232,0.0,8.0,25,0.00,,,0.00,weatherlink.com 1.10,2013-11-18 20:33:00,
2013-11-18 15:49:00,70.5,31.0,29.89,WSW,237,0.0,8.0,23,0.00,,,0.00,weatherlink.com 1.10,2013-11-18 20:49:00,
2013-11-18 16:03:00,69.8,31.0,29.89,WSW,243,0.0,3.0,24,0.00,,,0.00,weatherlink.com 1.10,2013-11-18 21:03:00,
2013-11-18 16:18:00,69.1,35.0,29.89,WSW,238,3.0,4.0,28,0.00,,,0.00,weatherlink.com 1.10,2013-11-18 21:18:00,
2013-11-18 16:33:00,68.5,36.0,29.90,WSW,246,2.0,4.0,30,0.00,,,0.00,weatherlink.com 1.10,2013-11-18 21:33:00,
2013-11-18 16:48:00,67.3,36.0,29.91,SW,236,0.0,4.0,31,0.00,,,0.00,weatherlink.com 1.10,2013-11-18 21:48:00,
2013-11-18 17:03:00,65.8,36.0,29.91,WSW,251,0.0,1.0,33,0.00,,,0.00,weatherlink.com 1.10,2013-11-18 22:03:00,
2013-11-18 17:18:00,63.9,36.0,29.91,WSW,251,0.0,0.0,36,0.00,,,0.00,weatherlink.com 1.10,2013-11-18 22:18:00,
2013-11-18 17:34:00,62.2,35.0,29.93,WNW,292,0.0,0.0,37,0.00,,,0.00,weatherlink.com 1.10,2013-11-18 22:34:00,
2013-11-18 17:49:00,60.4,37.0,29.93,WNW,292,0.0,0.0,42,0.00,,,0.00,weatherlink.com 1.10,2013-11-18 22:49:00,
2013-11-18 18:04:00,58.4,37.0,29.94,WNW,292,0.0,0.0,46,0.00,,,0.00,weatherlink.com 1.10,2013-11-18 23:04:00,
2013-11-18 18:20:00,56.9,35.0,29.95,WNW,291,0.0,1.0,44,0.00,,,0.00,weatherlink.com 1.10,2013-11-18 23:20:00,
2013-11-18 18:34:00,56.4,35.0,29.95,WNW,292,0.0,0.0,45,0.00,,,0.00,weatherlink.com 1.10,2013-11-18 23:34:00,
2013-11-18 18:49:00,55.7,36.0,29.95,WNW,291,0.0,0.0,48,0.00,,,0.00,weatherlink.com 1.10,2013-11-18 23:49:00,
2013-11-18 19:04:00,54.7,36.0,29.95,WNW,291,0.0,1.0,50,0.00,,,0.00,weatherlink.com 1.10,2013-11-19 00:04:00,
2013-11-18 19:19:00,53.5,36.0,29.96,WNW,292,0.0,0.0,52,0.00,,,0.00,weatherlink.com 1.10,2013-11-19 00:19:00,
2013-11-18 19:34:00,52.9,35.0,29.96,WNW,292,0.0,0.0,51,0.00,,,0.00,weatherlink.com 1.10,2013-11-19 00:34:00,
2013-11-18 19:49:00,52.7,34.0,29.96,WNW,292,0.0,0.0,50,0.00,,,0.00,weatherlink.com 1.10,2013-11-19 00:49:00,
2013-11-18 20:04:00,52.3,34.0,29.97,WNW,291,0.0,0.0,51,0.00,,,0.00,weatherlink.com 1.10,2013-11-19 01:04:00,
2013-11-18 20:19:00,52.2,32.0,29.98,WNW,292,0.0,0.0,46,0.00,,,0.00,weatherlink.com 1.10,2013-11-19 01:19:00,
2013-11-18 20:34:00,52.1,34.0,29.98,WNW,291,0.0,0.0,51,0.00,,,0.00,weatherlink.com 1.10,2013-11-19 01:34:00,
2013-11-18 20:49:00,51.1,35.0,29.99,WNW,291,0.0,0.0,55,0.00,,,0.00,weatherlink.com 1.10,2013-11-19 01:49:00,
2013-11-18 21:04:00,50.5,33.0,29.99,SSW,197,3.0,4.0,51,0.00,,,0.00,weatherlink.com 1.10,2013-11-19 02:04:00,
2013-11-18 21:19:00,52.7,33.0,30.00,South,189,0.0,4.0,48,0.00,,,0.00,weatherlink.com 1.10,2013-11-19 02:19:00,
2013-11-18 21:34:00,53.8,33.0,30.00,SSE,148,0.0,9.0,46,0.00,,,0.00,weatherlink.com 1.10,2013-11-19 02:34:00,
2013-11-18 21:49:00,54.0,33.0,30.01,ESE,103,0.0,2.0,45,0.00,,,0.00,weatherlink.com 1.10,2013-11-19 02:49:00,
2013-11-18 22:04:00,54.1,34.0,30.01,NE,52,0.0,3.0,46,0.00,,,0.00,weatherlink.com 1.10,2013-11-19 03:04:00,
2013-11-18 22:19:00,53.6,33.0,30.01,NE,51,0.0,3.0,46,0.00,,,0.00,weatherlink.com 1.10,2013-11-19 03:19:00,
2013-11-18 22:34:00,52.8,33.0,30.01,NW,315,0.0,3.0,48,0.00,,,0.00,weatherlink.com 1.10,2013-11-19 03:34:00,
2013-11-18 22:49:00,52.4,34.0,30.02,ENE,78,0.0,2.0,50,0.00,,,0.00,weatherlink.com 1.10,2013-11-19 03:49:00,
2013-11-18 23:04:00,52.6,34.0,30.02,North,9,0.0,3.0,49,0.00,,,0.00,weatherlink.com 1.10,2013-11-19 04:04:00,
2013-11-18 23:19:00,52.2,34.0,30.01,SSE,161,0.0,2.0,50,0.00,,,0.00,weatherlink.com 1.10,2013-11-19 04:19:00,
2013-11-18 23:34:00,50.8,34.0,30.02,SSE,161,0.0,1.0,53,0.00,,,0.00,weatherlink.com 1.10,2013-11-19 04:34:00,
2013-11-18 23:49:00,49.0,34.0,30.02,SSE,161,0.0,1.0,57,0.00,,,0.00,weatherlink.com 1.10,2013-11-19 04:49:00,